Time;durP1;ratioP1;P1;durP2;ratioP2;P2;SDS_P1;SDS_P2;PMS_P1;PMS_P2;Temp;Humidity;BMP_temperature;BMP_pressure;BME280_temperature;BME280_humidity;BME280_pressure;Samples;Min_cycle;Max_cycle;Signal;HPM_P1;HPM_P2
2023/08/11 00:01:50;;;;;;;1.67;0.73;;;;;;;;;;5012349;28;20052;-64
2023/08/11 00:04:18;;;;;;;0.50;0.50;;;;;;;;;;5014444;28;20044;-64
2023/08/11 00:06:44;;;;;;;0.40;0.40;;;;;;;;;;5015153;28;20057;-64
2023/08/11 00:09:11;;;;;;;0.80;0.70;;;;;;;;;;5014224;28;20065;-64
2023/08/11 00:11:37;;;;;;;0.80;0.80;;;;;;;;;;5012543;28;20112;-64
2023/08/11 00:14:03;;;;;;;0.90;0.90;;;;;;;;;;5011504;28;20065;-64
2023/08/11 00:16:29;;;;;;;0.80;0.80;;;;;;;;;;5014645;28;20046;-64
2023/08/11 00:18:55;;;;;;;0.70;0.70;;;;;;;;;;5015752;28;20041;-64
2023/08/11 00:21:23;;;;;;;0.80;0.80;;;;;;;;;;5013379;28;20045;-64
2023/08/11 00:23:49;;;;;;;0.65;0.65;;;;;;;;;;5014411;28;20060;-64
2023/08/11 00:26:15;;;;;;;0.80;0.68;;;;;;;;;;5015424;28;20687;-64
2023/08/11 00:28:41;;;;;;;0.93;0.90;;;;;;;;;;5019129;28;20049;-64
2023/08/11 00:31:08;;;;;;;0.70;0.70;;;;;;;;;;5019010;28;20114;-64
2023/08/11 00:33:36;;;;;;;0.82;0.82;;;;;;;;;;5018100;28;20523;-64
2023/08/11 00:36:02;;;;;;;0.70;0.70;;;;;;;;;;5016219;28;20169;-64
2023/08/11 00:38:38;;;;;;;0.90;0.90;;;;;;;;;;5014559;28;20053;-64
2023/08/11 00:41:05;;;;;;;0.90;0.90;;;;;;;;;;5015059;28;20045;-64
2023/08/11 00:43:31;;;;;;;0.70;0.70;;;;;;;;;;5016257;28;20431;-64
2023/08/11 00:45:59;;;;;;;0.80;0.80;;;;;;;;;;5018302;28;20049;-64
2023/08/11 00:48:25;;;;;;;0.80;0.80;;;;;;;;;;5017651;28;20049;-64
2023/08/11 00:50:57;;;;;;;1.08;0.60;;;;;;;;;;5017989;28;20100;-64
2023/08/11 00:53:23;;;;;;;0.50;0.50;;;;;;;;;;5014498;28;20486;-64
2023/08/11 00:55:49;;;;;;;0.60;0.60;;;;;;;;;;5013609;28;20562;-64
2023/08/11 00:58:15;;;;;;;0.80;0.80;;;;;;;;;;5016952;28;20080;-64
2023/08/11 01:00:41;;;;;;;0.57;0.50;;;;;;;;;;5017544;28;20069;-64
2023/08/11 01:03:07;;;;;;;0.73;0.73;;;;;;;;;;4999788;28;20123;-64
2023/08/11 01:05:38;;;;;;;0.70;0.70;;;;;;;;;;5021868;28;20133;-64
2023/08/11 01:08:23;;;;;;;0.77;0.77;;;;;;;;;;5014919;28;20366;-64
2023/08/11 01:10:55;;;;;;;0.90;0.90;;;;;;;;;;5018071;28;20045;-64
2023/08/11 01:13:21;;;;;;;0.68;0.68;;;;;;;;;;5016085;28;20108;-64
2023/08/11 01:15:50;;;;;;;1.10;1.00;;;;;;;;;;5013296;28;20049;-64
2023/08/11 01:18:17;;;;;;;0.70;0.70;;;;;;;;;;5015645;28;20049;-64
2023/08/11 01:20:44;;;;;;;1.10;1.00;;;;;;;;;;5018360;28;20098;-64
2023/08/11 01:23:17;;;;;;;1.17;1.08;;;;;;;;;;5017387;28;20046;-64
2023/08/11 01:25:43;;;;;;;0.60;0.60;;;;;;;;;;5018674;28;20348;-64
2023/08/11 01:28:09;;;;;;;1.00;0.90;;;;;;;;;;5018239;28;20149;-64
2023/08/11 01:30:36;;;;;;;0.70;0.70;;;;;;;;;;5022777;28;20555;-64
2023/08/11 01:33:03;;;;;;;0.80;0.80;;;;;;;;;;5015466;28;20073;-64
2023/08/11 01:35:29;;;;;;;0.73;0.73;;;;;;;;;;5015231;28;20108;-64
2023/08/11 01:37:55;;;;;;;0.70;0.70;;;;;;;;;;5017353;28;20041;-64
2023/08/11 01:40:21;;;;;;;1.13;0.90;;;;;;;;;;5017265;28;20128;-64
2023/08/11 01:42:47;;;;;;;0.55;0.50;;;;;;;;;;5015986;28;20120;-64
2023/08/11 01:45:15;;;;;;;0.88;0.82;;;;;;;;;;5013581;28;20050;-64
2023/08/11 01:47:44;;;;;;;0.68;0.68;;;;;;;;;;5014466;28;20070;-64
2023/08/11 01:50:13;;;;;;;1.23;0.85;;;;;;;;;;5017106;28;20041;-64
2023/08/11 01:52:40;;;;;;;1.15;1.05;;;;;;;;;;5016987;28;20103;-64
2023/08/11 01:55:10;;;;;;;0.93;0.93;;;;;;;;;;5014583;28;20077;-64
2023/08/11 01:57:36;;;;;;;0.88;0.88;;;;;;;;;;5013587;28;20053;-64
2023/08/11 02:00:07;;;;;;;0.90;0.90;;;;;;;;;;5014903;28;20104;-64
2023/08/11 02:02:33;;;;;;;0.93;0.93;;;;;;;;;;5017517;28;20053;-64
2023/08/11 02:04:59;;;;;;;1.08;1.00;;;;;;;;;;5017178;28;20056;-64
2023/08/11 02:07:25;;;;;;;0.82;0.82;;;;;;;;;;5013918;28;20875;-64
2023/08/11 02:09:54;;;;;;;0.60;0.60;;;;;;;;;;5014189;28;20125;-64
2023/08/11 02:12:20;;;;;;;1.00;0.90;;;;;;;;;;5015063;28;20100;-64
2023/08/11 02:14:46;;;;;;;0.95;0.95;;;;;;;;;;5016911;28;20425;-64
2023/08/11 02:17:12;;;;;;;0.75;0.75;;;;;;;;;;5016738;28;20044;-64
2023/08/11 02:19:38;;;;;;;0.90;0.90;;;;;;;;;;5016535;28;20041;-64
2023/08/11 02:22:04;;;;;;;1.10;1.00;;;;;;;;;;5017224;28;20041;-64
2023/08/11 02:24:30;;;;;;;1.08;0.98;;;;;;;;;;5015779;28;20087;-64
2023/08/11 02:26:56;;;;;;;0.70;0.70;;;;;;;;;;5013008;28;20064;-64
2023/08/11 02:29:23;;;;;;;1.00;1.00;;;;;;;;;;5013619;28;20046;-64
2023/08/11 02:31:49;;;;;;;0.98;0.98;;;;;;;;;;5016872;28;20045;-64
2023/08/11 02:34:15;;;;;;;0.80;0.70;;;;;;;;;;5015958;28;20092;-64
2023/08/11 02:36:41;;;;;;;0.93;0.93;;;;;;;;;;5015363;28;20037;-64
2023/08/11 02:39:07;;;;;;;0.80;0.80;;;;;;;;;;5013519;28;20038;-64
2023/08/11 02:41:34;;;;;;;0.70;0.68;;;;;;;;;;5013262;28;20041;-64
2023/08/11 02:44:00;;;;;;;0.73;0.73;;;;;;;;;;5017293;28;20052;-64
2023/08/11 02:46:26;;;;;;;0.75;0.75;;;;;;;;;;5015884;28;20041;-64
2023/08/11 02:48:53;;;;;;;0.90;0.90;;;;;;;;;;5014039;28;20049;-64
2023/08/11 02:51:19;;;;;;;0.80;0.75;;;;;;;;;;5012864;28;20480;-64
2023/08/11 02:53:45;;;;;;;0.82;0.82;;;;;;;;;;5019592;28;20581;-64
2023/08/11 02:56:15;;;;;;;0.52;0.52;;;;;;;;;;5015924;28;20041;-64
2023/08/11 02:58:41;;;;;;;0.60;0.60;;;;;;;;;;5016692;28;20049;-64
2023/08/11 03:01:07;;;;;;;0.70;0.70;;;;;;;;;;5013451;28;20472;-64
2023/08/11 03:03:34;;;;;;;0.65;0.65;;;;;;;;;;5013243;28;20530;-64
2023/08/11 03:06:00;;;;;;;1.20;1.10;;;;;;;;;;5013880;28;20053;-64
2023/08/11 03:08:27;;;;;;;0.70;0.70;;;;;;;;;;5015855;28;20063;-64
2023/08/11 03:10:53;;;;;;;0.90;0.85;;;;;;;;;;5016396;28;20045;-64
2023/08/11 03:13:19;;;;;;;0.85;0.85;;;;;;;;;;5013562;28;20492;-64
2023/08/11 03:15:45;;;;;;;1.00;0.90;;;;;;;;;;5012642;28;20726;-64
2023/08/11 03:18:11;;;;;;;1.20;1.08;;;;;;;;;;5012933;28;20488;-64
2023/08/11 03:20:38;;;;;;;1.05;0.95;;;;;;;;;;5016320;28;20597;-64
2023/08/11 03:23:04;;;;;;;1.10;1.10;;;;;;;;;;5015105;28;20053;-64
2023/08/11 03:25:30;;;;;;;1.02;0.98;;;;;;;;;;5014473;28;20088;-64
2023/08/11 03:27:57;;;;;;;0.88;0.88;;;;;;;;;;5013080;28;20025;-64
2023/08/11 03:30:23;;;;;;;1.23;1.13;;;;;;;;;;5011679;28;20049;-64
2023/08/11 03:32:49;;;;;;;0.93;0.90;;;;;;;;;;5015735;28;20048;-64
2023/08/11 03:35:17;;;;;;;1.13;1.10;;;;;;;;;;5016011;28;20046;-64
2023/08/11 03:37:43;;;;;;;1.27;0.88;;;;;;;;;;5014254;28;20045;-64
2023/08/11 03:40:12;;;;;;;1.27;1.17;;;;;;;;;;5012868;28;20493;-64
2023/08/11 03:42:42;;;;;;;1.45;1.10;;;;;;;;;;5013010;28;20084;-64
2023/08/11 03:45:11;;;;;;;1.40;1.30;;;;;;;;;;5014777;28;20069;-64
2023/08/11 03:47:37;;;;;;;1.63;1.05;;;;;;;;;;5015600;28;20082;-64
2023/08/11 03:50:03;;;;;;;1.67;1.58;;;;;;;;;;5012233;28;20053;-64
2023/08/11 03:52:29;;;;;;;1.10;1.10;;;;;;;;;;5012382;28;20403;-64
2023/08/11 03:54:56;;;;;;;1.23;1.13;;;;;;;;;;5013962;28;20054;-64
2023/08/11 03:57:22;;;;;;;1.30;1.20;;;;;;;;;;5016614;28;20494;-64
2023/08/11 03:59:48;;;;;;;1.30;1.20;;;;;;;;;;5019717;28;20057;-64
2023/08/11 04:02:14;;;;;;;1.40;1.30;;;;;;;;;;5011234;28;20037;-64
2023/08/11 04:04:40;;;;;;;1.40;1.30;;;;;;;;;;5019163;28;20044;-64
2023/08/11 04:07:06;;;;;;;1.40;1.30;;;;;;;;;;5018190;28;20148;-64
2023/08/11 04:09:34;;;;;;;1.38;1.27;;;;;;;;;;5019564;28;20045;-64
2023/08/11 04:12:00;;;;;;;1.30;1.20;;;;;;;;;;5017838;28;20048;-64
2023/08/11 04:14:26;;;;;;;0.95;0.93;;;;;;;;;;5019381;28;20049;-64
2023/08/11 04:16:52;;;;;;;1.00;1.00;;;;;;;;;;5019235;28;20461;-64
2023/08/11 04:19:18;;;;;;;1.20;1.10;;;;;;;;;;5017359;28;20045;-64
2023/08/11 04:21:44;;;;;;;1.25;1.15;;;;;;;;;;5016479;28;20049;-64
2023/08/11 04:24:10;;;;;;;1.40;1.30;;;;;;;;;;5016102;28;20099;-64
2023/08/11 04:26:36;;;;;;;1.10;1.05;;;;;;;;;;5017780;28;20184;-64
2023/08/11 04:29:03;;;;;;;1.42;1.27;;;;;;;;;;5019482;28;20037;-64
2023/08/11 04:31:30;;;;;;;1.20;1.10;;;;;;;;;;5018193;28;20080;-64
2023/08/11 04:33:56;;;;;;;1.75;1.13;;;;;;;;;;5015340;28;20112;-64
2023/08/11 04:36:22;;;;;;;1.00;1.00;;;;;;;;;;5015406;28;20514;-64
2023/08/11 04:38:48;;;;;;;1.05;1.00;;;;;;;;;;5018309;28;20046;-64
2023/08/11 04:41:14;;;;;;;1.38;1.27;;;;;;;;;;5018194;28;20494;-64
2023/08/11 04:43:40;;;;;;;1.40;1.30;;;;;;;;;;5018201;28;20042;-64
2023/08/11 04:46:06;;;;;;;0.88;0.88;;;;;;;;;;5015678;28;20092;-64
2023/08/11 04:48:33;;;;;;;1.30;1.20;;;;;;;;;;5015763;28;20038;-64
2023/08/11 04:50:59;;;;;;;1.70;1.20;;;;;;;;;;5018678;28;20134;-64
2023/08/11 04:53:25;;;;;;;1.40;1.30;;;;;;;;;;5017897;28;20068;-64
2023/08/11 04:55:51;;;;;;;2.03;1.48;;;;;;;;;;5017781;28;20093;-64
2023/08/11 04:58:17;;;;;;;1.02;1.00;;;;;;;;;;5015679;28;20050;-64
2023/08/11 05:00:44;;;;;;;1.15;0.93;;;;;;;;;;5015383;28;20415;-64
2023/08/11 05:03:10;;;;;;;1.02;1.00;;;;;;;;;;5017612;28;20050;-64
2023/08/11 05:05:36;;;;;;;1.42;1.33;;;;;;;;;;5018822;28;20546;-64
2023/08/11 05:08:02;;;;;;;1.20;1.10;;;;;;;;;;5017339;28;20052;-64
2023/08/11 05:10:29;;;;;;;1.00;1.00;;;;;;;;;;5015012;28;20076;-64
2023/08/11 05:12:55;;;;;;;1.02;1.02;;;;;;;;;;5015551;28;20049;-64
2023/08/11 05:15:21;;;;;;;0.90;0.90;;;;;;;;;;5016709;28;20045;-64
2023/08/11 05:17:47;;;;;;;1.15;1.05;;;;;;;;;;5018443;28;20088;-64
2023/08/11 05:20:14;;;;;;;1.13;1.13;;;;;;;;;;5017376;28;20339;-64
2023/08/11 05:22:41;;;;;;;0.95;0.95;;;;;;;;;;5014481;28;20053;-64
2023/08/11 05:25:07;;;;;;;1.63;1.52;;;;;;;;;;5014527;28;20049;-64
2023/08/11 05:27:33;;;;;;;1.05;1.02;;;;;;;;;;5017086;28;20046;-64
2023/08/11 05:29:59;;;;;;;1.58;1.48;;;;;;;;;;5017886;28;20041;-64
2023/08/11 05:32:26;;;;;;;1.30;1.20;;;;;;;;;;5017683;28;20098;-63
2023/08/11 05:34:53;;;;;;;1.65;1.55;;;;;;;;;;5015078;28;20045;-63
2023/08/11 05:37:19;;;;;;;1.17;1.10;;;;;;;;;;5013788;28;20120;-64
2023/08/11 05:39:45;;;;;;;1.35;1.25;;;;;;;;;;5017046;28;20065;-64
2023/08/11 05:42:11;;;;;;;1.80;1.70;;;;;;;;;;5017790;28;20029;-64
2023/08/11 05:44:37;;;;;;;1.98;1.88;;;;;;;;;;5016772;28;20043;-64
2023/08/11 05:47:04;;;;;;;2.20;2.10;;;;;;;;;;5014434;28;20089;-64
2023/08/11 05:49:30;;;;;;;2.50;2.30;;;;;;;;;;5014820;28;20045;-64
2023/08/11 05:51:56;;;;;;;2.15;1.95;;;;;;;;;;5015392;28;20037;-64
2023/08/11 05:54:22;;;;;;;1.75;1.65;;;;;;;;;;5016616;28;20049;-64
2023/08/11 05:56:49;;;;;;;1.58;1.48;;;;;;;;;;5014787;28;20140;-64
2023/08/11 05:59:15;;;;;;;1.33;1.23;;;;;;;;;;5013543;28;20046;-64
2023/08/11 06:01:41;;;;;;;1.45;1.10;;;;;;;;;;5014143;28;20038;-64
2023/08/11 06:04:07;;;;;;;1.58;1.48;;;;;;;;;;5015274;28;20092;-64
2023/08/11 06:06:33;;;;;;;1.40;1.30;;;;;;;;;;5017782;28;20052;-64
2023/08/11 06:08:59;;;;;;;0.95;0.95;;;;;;;;;;5017408;28;20555;-64
2023/08/11 06:11:25;;;;;;;1.80;1.40;;;;;;;;;;5013278;28;20041;-64
2023/08/11 06:13:52;;;;;;;1.40;1.30;;;;;;;;;;5013972;28;20046;-64
2023/08/11 06:16:18;;;;;;;0.80;0.80;;;;;;;;;;5015414;28;20112;-64
2023/08/11 06:18:44;;;;;;;2.05;0.80;;;;;;;;;;5015495;28;20052;-64
2023/08/11 06:21:10;;;;;;;1.65;1.55;;;;;;;;;;5014366;28;20045;-64
2023/08/11 06:23:37;;;;;;;1.73;1.52;;;;;;;;;;5016152;28;20037;-64
2023/08/11 06:26:03;;;;;;;1.77;1.67;;;;;;;;;;5016428;28;20046;-64
2023/08/11 06:28:29;;;;;;;1.42;1.25;;;;;;;;;;5015766;28;20049;-64
2023/08/11 06:30:55;;;;;;;1.73;1.50;;;;;;;;;;5013526;28;20038;-64
2023/08/11 06:33:21;;;;;;;1.92;1.70;;;;;;;;;;5012660;28;20038;-64
2023/08/11 06:35:47;;;;;;;1.75;1.65;;;;;;;;;;5016597;28;20033;-64
2023/08/11 06:38:13;;;;;;;2.45;2.25;;;;;;;;;;5016300;28;20045;-64
2023/08/11 06:40:39;;;;;;;1.92;1.60;;;;;;;;;;5014695;28;20408;-64
2023/08/11 06:43:06;;;;;;;2.35;2.15;;;;;;;;;;5011532;28;20073;-64
2023/08/11 06:45:32;;;;;;;1.55;1.45;;;;;;;;;;5012782;28;20432;-64
2023/08/11 06:47:59;;;;;;;0.77;0.77;;;;;;;;;;5016350;28;20083;-64
2023/08/11 06:50:26;;;;;;;2.33;1.52;;;;;;;;;;5016564;28;20043;-64
2023/08/11 06:52:52;;;;;;;3.33;1.55;;;;;;;;;;5015585;28;20041;-64
2023/08/11 06:55:18;;;;;;;2.05;1.95;;;;;;;;;;5012354;28;20154;-64
2023/08/11 06:57:44;;;;;;;2.20;2.00;;;;;;;;;;5013214;28;20857;-64
2023/08/11 07:00:11;;;;;;;3.53;1.95;;;;;;;;;;5014583;28;20041;-64
2023/08/11 07:02:38;;;;;;;2.28;2.08;;;;;;;;;;5016038;28;20112;-64
2023/08/11 07:05:05;;;;;;;1.90;1.80;;;;;;;;;;5014514;28;20723;-64
2023/08/11 07:07:31;;;;;;;2.13;1.95;;;;;;;;;;5013252;28;20048;-64
2023/08/11 07:09:57;;;;;;;2.00;1.90;;;;;;;;;;5013023;28;20050;-64
2023/08/11 07:12:23;;;;;;;2.05;1.95;;;;;;;;;;5015688;28;20505;-64
2023/08/11 07:14:50;;;;;;;2.85;2.65;;;;;;;;;;5015288;28;20146;-64
2023/08/11 07:17:17;;;;;;;2.47;2.28;;;;;;;;;;5013951;28;20128;-64
2023/08/11 07:19:42;;;;;;;2.50;2.30;;;;;;;;;;5012444;28;20666;-64
2023/08/11 07:22:09;;;;;;;2.55;2.45;;;;;;;;;;5011976;28;20038;-64
2023/08/11 07:24:35;;;;;;;3.85;2.70;;;;;;;;;;5015306;28;20511;-64
2023/08/11 07:27:01;;;;;;;2.72;2.28;;;;;;;;;;5015915;28;20132;-64
2023/08/11 07:29:27;;;;;;;2.47;2.28;;;;;;;;;;5014174;28;20037;-64
2023/08/11 07:31:53;;;;;;;2.25;2.08;;;;;;;;;;5012642;28;20432;-65
2023/08/11 07:34:19;;;;;;;2.25;2.10;;;;;;;;;;5012572;28;20042;-64
2023/08/11 07:36:45;;;;;;;2.28;2.08;;;;;;;;;;5014724;28;20317;-64
2023/08/11 07:39:12;;;;;;;2.30;2.17;;;;;;;;;;5015682;28;20075;-64
2023/08/11 07:41:38;;;;;;;2.35;2.25;;;;;;;;;;5014927;28;20037;-64
2023/08/11 07:44:04;;;;;;;2.47;2.20;;;;;;;;;;5012355;28;20052;-64
2023/08/11 07:46:30;;;;;;;2.40;2.20;;;;;;;;;;5013027;28;20464;-64
2023/08/11 07:48:57;;;;;;;2.28;2.17;;;;;;;;;;5015485;28;20053;-64
2023/08/11 07:51:23;;;;;;;2.53;2.33;;;;;;;;;;5015376;28;20475;-64
2023/08/11 07:53:49;;;;;;;1.73;1.63;;;;;;;;;;5014728;28;20045;-64
2023/08/11 07:56:15;;;;;;;2.03;1.92;;;;;;;;;;5012265;28;20099;-64
2023/08/11 07:58:41;;;;;;;2.25;2.05;;;;;;;;;;5012353;28;20097;-65
2023/08/11 08:01:10;;;;;;;3.35;3.10;;;;;;;;;;5014594;28;20069;-64
2023/08/11 08:03:36;;;;;;;2.25;2.03;;;;;;;;;;5014946;28;20037;-64
2023/08/11 08:06:04;;;;;;;1.95;1.85;;;;;;;;;;5014575;28;20041;-64
2023/08/11 08:08:31;;;;;;;2.58;2.25;;;;;;;;;;5013143;28;20046;-64
2023/08/11 08:10:57;;;;;;;3.10;2.33;;;;;;;;;;5011845;28;20594;-64
2023/08/11 08:13:23;;;;;;;2.72;2.38;;;;;;;;;;5015153;28;20095;-64
2023/08/11 08:15:49;;;;;;;2.22;2.03;;;;;;;;;;5015126;28;20128;-64
2023/08/11 08:18:15;;;;;;;2.60;2.40;;;;;;;;;;5013449;28;20048;-64
2023/08/11 08:20:41;;;;;;;3.40;2.20;;;;;;;;;;5012132;28;20129;-64
2023/08/11 08:23:07;;;;;;;2.13;2.00;;;;;;;;;;5012144;28;20176;-64
2023/08/11 08:25:33;;;;;;;5.32;1.70;;;;;;;;;;5015048;28;20124;-64
2023/08/11 08:27:59;;;;;;;1.92;1.73;;;;;;;;;;5015584;28;20068;-64
2023/08/11 08:30:25;;;;;;;3.00;2.67;;;;;;;;;;5013765;28;20045;-64
2023/08/11 08:32:51;;;;;;;2.65;2.45;;;;;;;;;;5011510;28;20045;-64
2023/08/11 08:35:17;;;;;;;2.60;2.40;;;;;;;;;;5012016;28;20065;-64
2023/08/11 08:37:43;;;;;;;2.65;2.45;;;;;;;;;;5014513;28;20065;-64
2023/08/11 08:40:10;;;;;;;2.33;2.13;;;;;;;;;;5014614;28;20077;-64
2023/08/11 08:42:36;;;;;;;2.95;2.70;;;;;;;;;;5014580;28;20029;-64
2023/08/11 08:45:03;;;;;;;3.10;2.80;;;;;;;;;;5014992;28;20050;-64
2023/08/11 08:47:30;;;;;;;2.33;2.13;;;;;;;;;;5022062;28;20614;-64
2023/08/11 08:49:57;;;;;;;3.80;2.58;;;;;;;;;;5016254;28;20122;-65
2023/08/11 08:52:23;;;;;;;2.35;2.15;;;;;;;;;;5015908;28;20046;-64
2023/08/11 08:54:49;;;;;;;2.72;1.92;;;;;;;;;;5015647;28;20485;-64
2023/08/11 08:57:17;;;;;;;2.78;2.10;;;;;;;;;;5017959;28;20048;-64
2023/08/11 08:59:43;;;;;;;2.30;2.10;;;;;;;;;;5018093;28;20139;-64
2023/08/11 09:02:10;;;;;;;3.05;1.95;;;;;;;;;;5015644;28;20412;-64
2023/08/11 09:04:36;;;;;;;1.75;1.55;;;;;;;;;;5015423;28;20042;-65
2023/08/11 09:07:03;;;;;;;2.28;1.80;;;;;;;;;;5015917;28;20093;-65
2023/08/11 09:09:30;;;;;;;1.65;1.55;;;;;;;;;;5018748;28;20081;-64
2023/08/11 09:11:56;;;;;;;2.50;1.85;;;;;;;;;;5018217;28;20045;-64
2023/08/11 09:14:22;;;;;;;2.38;1.60;;;;;;;;;;5014703;28;20049;-64
2023/08/11 09:16:50;;;;;;;1.75;1.50;;;;;;;;;;5015044;28;20042;-64
2023/08/11 09:19:16;;;;;;;2.05;1.88;;;;;;;;;;5016120;28;20045;-64
2023/08/11 09:21:43;;;;;;;3.42;2.25;;;;;;;;;;5017320;28;20037;-64
2023/08/11 09:24:12;;;;;;;2.13;1.75;;;;;;;;;;5018022;28;20054;-64
2023/08/11 09:26:42;;;;;;;1.90;1.77;;;;;;;;;;5014967;28;20038;-64
2023/08/11 09:29:08;;;;;;;2.20;2.00;;;;;;;;;;5014432;28;20054;-64
2023/08/11 09:31:34;;;;;;;2.97;2.70;;;;;;;;;;5024215;28;20061;-64
2023/08/11 09:34:10;;;;;;;3.72;2.20;;;;;;;;;;5018606;28;20037;-64
2023/08/11 09:36:36;;;;;;;2.10;1.88;;;;;;;;;;5016100;28;20033;-64
2023/08/11 09:39:06;;;;;;;2.03;1.70;;;;;;;;;;5014863;28;20056;-64
2023/08/11 09:41:35;;;;;;;1.25;1.15;;;;;;;;;;5015498;28;20606;-65
2023/08/11 09:44:02;;;;;;;2.28;1.90;;;;;;;;;;5017474;28;20033;-64
2023/08/11 09:46:28;;;;;;;4.18;2.05;;;;;;;;;;5018055;28;20037;-64
2023/08/11 09:48:54;;;;;;;1.70;1.60;;;;;;;;;;5014692;28;20052;-64
2023/08/11 09:51:20;;;;;;;2.58;1.40;;;;;;;;;;5014374;28;20061;-64
2023/08/11 09:53:47;;;;;;;1.90;1.52;;;;;;;;;;5015389;28;20037;-64
2023/08/11 09:56:13;;;;;;;1.73;1.48;;;;;;;;;;5016787;28;20168;-64
2023/08/11 09:58:39;;;;;;;1.50;1.40;;;;;;;;;;5017516;28;20045;-64
2023/08/11 10:01:08;;;;;;;2.45;1.40;;;;;;;;;;5014810;28;20045;-64
2023/08/11 10:03:38;;;;;;;2.03;1.73;;;;;;;;;;5014151;28;20041;-64
2023/08/11 10:06:04;;;;;;;3.13;1.90;;;;;;;;;;5016022;28;20046;-64
2023/08/11 10:08:31;;;;;;;1.92;1.55;;;;;;;;;;5017660;28;20517;-64
2023/08/11 10:10:58;;;;;;;2.35;1.90;;;;;;;;;;5016752;28;20655;-64
2023/08/11 10:13:26;;;;;;;2.40;1.42;;;;;;;;;;5013979;28;20440;-64
2023/08/11 10:15:54;;;;;;;1.60;1.50;;;;;;;;;;5013887;28;20046;-64
2023/08/11 10:18:21;;;;;;;1.63;1.52;;;;;;;;;;5015285;28;20045;-64
2023/08/11 10:20:50;;;;;;;1.40;1.30;;;;;;;;;;5020069;28;20053;-64
2023/08/11 10:23:16;;;;;;;2.03;1.92;;;;;;;;;;5014824;28;20100;-64
2023/08/11 10:25:43;;;;;;;3.08;1.58;;;;;;;;;;5016599;28;20128;-64
2023/08/11 10:28:11;;;;;;;2.03;1.50;;;;;;;;;;5016517;28;20052;-64
2023/08/11 10:30:37;;;;;;;2.65;1.88;;;;;;;;;;5013831;28;20042;-65
2023/08/11 10:33:04;;;;;;;2.40;1.92;;;;;;;;;;5013424;28;20522;-65
2023/08/11 10:35:36;;;;;;;1.63;1.50;;;;;;;;;;5014994;28;20071;-65
2023/08/11 10:38:04;;;;;;;3.25;1.50;;;;;;;;;;5016471;28;20045;-65
2023/08/11 10:40:35;;;;;;;2.00;1.42;;;;;;;;;;5016494;28;20046;-65
2023/08/11 10:43:02;;;;;;;1.67;1.58;;;;;;;;;;5013964;28;20180;-64
2023/08/11 10:45:31;;;;;;;1.50;1.30;;;;;;;;;;5012700;28;20445;-64
2023/08/11 10:47:58;;;;;;;2.42;1.50;;;;;;;;;;5016405;28;20091;-64
2023/08/11 10:50:24;;;;;;;1.55;1.40;;;;;;;;;;5016032;28;20107;-64
2023/08/11 10:53:07;;;;;;;1.50;1.38;;;;;;;;;;5013747;28;20495;-64
2023/08/11 10:55:34;;;;;;;1.50;1.40;;;;;;;;;;5013189;28;20888;-65
2023/08/11 10:58:19;;;;;;;1.23;1.15;;;;;;;;;;5016044;28;20045;-65
2023/08/11 11:00:45;;;;;;;2.38;1.90;;;;;;;;;;5016125;28;20046;-65
2023/08/11 11:03:12;;;;;;;1.67;1.55;;;;;;;;;;5013300;28;20046;-65
2023/08/11 11:05:42;;;;;;;1.48;1.30;;;;;;;;;;5012964;28;20500;-65
2023/08/11 11:08:08;;;;;;;2.88;1.58;;;;;;;;;;5013592;28;20608;-65
2023/08/11 11:10:34;;;;;;;1.60;1.50;;;;;;;;;;5016689;28;20072;-64
2023/08/11 11:13:00;;;;;;;3.97;1.70;;;;;;;;;;5016722;28;20052;-64
2023/08/11 11:15:33;;;;;;;1.63;1.52;;;;;;;;;;5012370;28;20042;-64
2023/08/11 11:17:59;;;;;;;1.60;1.50;;;;;;;;;;5012961;28;20046;-64
2023/08/11 11:20:26;;;;;;;1.40;1.30;;;;;;;;;;5015000;28;20049;-64
2023/08/11 11:22:53;;;;;;;1.20;1.10;;;;;;;;;;5016291;28;20113;-64
2023/08/11 11:25:19;;;;;;;1.67;1.52;;;;;;;;;;5014669;28;20041;-64
2023/08/11 11:27:45;;;;;;;2.92;1.70;;;;;;;;;;5012272;28;20064;-64
2023/08/11 11:30:12;;;;;;;2.08;1.88;;;;;;;;;;5012490;28;20077;-64
2023/08/11 11:32:42;;;;;;;2.60;1.88;;;;;;;;;;5015044;28;20048;-64
2023/08/11 11:35:09;;;;;;;1.70;1.60;;;;;;;;;;5015005;28;20091;-64
2023/08/11 11:37:35;;;;;;;1.38;1.15;;;;;;;;;;5014862;28;20132;-64
2023/08/11 11:40:06;;;;;;;1.70;1.60;;;;;;;;;;5012892;28;20041;-64
2023/08/11 11:42:34;;;;;;;5.07;2.13;;;;;;;;;;5013468;28;20096;-64
2023/08/11 11:45:00;;;;;;;1.92;1.50;;;;;;;;;;5015556;28;20049;-64
2023/08/11 11:47:26;;;;;;;1.60;1.38;;;;;;;;;;5016819;28;20037;-64
2023/08/11 11:49:56;;;;;;;1.27;1.10;;;;;;;;;;5014486;28;20052;-64
2023/08/11 11:52:22;;;;;;;1.23;1.13;;;;;;;;;;5014108;28;20092;-64
2023/08/11 11:54:52;;;;;;;1.60;1.50;;;;;;;;;;5014046;28;20534;-65
2023/08/11 11:57:19;;;;;;;2.28;1.67;;;;;;;;;;5011900;28;20037;-65
2023/08/11 11:59:48;;;;;;;1.52;1.42;;;;;;;;;;5012420;28;20050;-65
2023/08/11 12:02:15;;;;;;;1.00;0.90;;;;;;;;;;5015504;28;20045;-64
2023/08/11 12:04:42;;;;;;;1.25;1.13;;;;;;;;;;5014864;28;20096;-64
2023/08/11 12:07:09;;;;;;;2.38;1.45;;;;;;;;;;5012959;28;20140;-65
2023/08/11 12:09:51;;;;;;;1.52;1.13;;;;;;;;;;5012493;28;20056;-65
2023/08/11 12:12:17;;;;;;;1.20;1.10;;;;;;;;;;5014989;28;20040;-65
2023/08/11 12:14:43;;;;;;;1.67;1.58;;;;;;;;;;5015338;28;20076;-65
2023/08/11 12:17:09;;;;;;;1.27;1.17;;;;;;;;;;5013475;28;20049;-65
2023/08/11 12:19:35;;;;;;;0.95;0.88;;;;;;;;;;5014619;28;20053;-65
2023/08/11 12:22:01;;;;;;;1.30;1.20;;;;;;;;;;5016235;28;20055;-65
2023/08/11 12:24:27;;;;;;;1.05;1.05;;;;;;;;;;5015408;28;20069;-65
2023/08/11 12:26:53;;;;;;;2.03;1.20;;;;;;;;;;5016169;28;20050;-65
2023/08/11 12:29:19;;;;;;;1.20;1.10;;;;;;;;;;5016588;28;20037;-65
2023/08/11 12:31:45;;;;;;;1.30;0.95;;;;;;;;;;5018393;28;20041;-64
2023/08/11 12:34:11;;;;;;;2.10;1.20;;;;;;;;;;5018516;28;20495;-65
2023/08/11 12:36:37;;;;;;;2.00;1.58;;;;;;;;;;5016531;28;20045;-65
2023/08/11 12:39:03;;;;;;;1.27;1.17;;;;;;;;;;5015328;28;20046;-65
2023/08/11 12:41:29;;;;;;;1.27;1.17;;;;;;;;;;5016170;28;20034;-65
2023/08/11 12:43:55;;;;;;;1.08;0.98;;;;;;;;;;5018548;28;20043;-65
2023/08/11 12:46:21;;;;;;;0.90;0.90;;;;;;;;;;5018112;28;20037;-65
2023/08/11 12:48:48;;;;;;;1.42;1.33;;;;;;;;;;5016915;28;20056;-65
2023/08/11 12:51:14;;;;;;;1.30;1.20;;;;;;;;;;5015321;28;20050;-65
2023/08/11 12:53:40;;;;;;;1.60;1.50;;;;;;;;;;5014871;28;20042;-65
2023/08/11 12:56:06;;;;;;;1.50;1.25;;;;;;;;;;5018428;28;20422;-65
2023/08/11 12:58:32;;;;;;;1.52;1.42;;;;;;;;;;5018850;28;20049;-65
2023/08/11 13:00:59;;;;;;;1.50;1.40;;;;;;;;;;5016049;28;20124;-64
2023/08/11 13:03:25;;;;;;;1.65;1.20;;;;;;;;;;5015163;28;20754;-65
2023/08/11 13:05:51;;;;;;;1.67;1.30;;;;;;;;;;5014971;28;20443;-65
2023/08/11 13:08:17;;;;;;;1.27;1.17;;;;;;;;;;5018116;28;20506;-65
2023/08/11 13:10:43;;;;;;;1.70;1.60;;;;;;;;;;5018422;28;20040;-65
2023/08/11 13:13:09;;;;;;;1.45;1.00;;;;;;;;;;5016123;28;20045;-65
2023/08/11 13:15:36;;;;;;;1.52;1.42;;;;;;;;;;5016030;28;20042;-65
2023/08/11 13:18:02;;;;;;;1.30;1.20;;;;;;;;;;5014014;28;20042;-65
2023/08/11 13:20:28;;;;;;;1.27;1.17;;;;;;;;;;5014530;28;20046;-65
2023/08/11 13:22:54;;;;;;;1.15;1.05;;;;;;;;;;5015485;28;20415;-65
2023/08/11 13:25:21;;;;;;;2.17;1.75;;;;;;;;;;5016274;28;20552;-65
2023/08/11 13:27:47;;;;;;;1.63;1.52;;;;;;;;;;5017382;28;20045;-65
2023/08/11 13:30:14;;;;;;;1.60;1.50;;;;;;;;;;5017070;28;20121;-65
2023/08/11 13:32:41;;;;;;;2.75;1.95;;;;;;;;;;5018462;28;20057;-65
2023/08/11 13:35:11;;;;;;;2.42;1.70;;;;;;;;;;5017182;28;20092;-65
2023/08/11 13:37:37;;;;;;;1.70;1.48;;;;;;;;;;5015401;28;20511;-65
2023/08/11 13:40:05;;;;;;;1.63;1.52;;;;;;;;;;5015008;28;20053;-65
2023/08/11 13:42:31;;;;;;;1.75;1.65;;;;;;;;;;5014919;28;20041;-65
2023/08/11 13:44:57;;;;;;;1.60;1.50;;;;;;;;;;5018103;28;20038;-65
2023/08/11 13:47:24;;;;;;;1.25;1.15;;;;;;;;;;5017466;28;20042;-65
2023/08/11 13:49:50;;;;;;;1.70;1.60;;;;;;;;;;5014335;28;20047;-65
2023/08/11 13:52:16;;;;;;;2.00;1.70;;;;;;;;;;5014016;28;20037;-65
2023/08/11 13:54:56;;;;;;;1.98;1.77;;;;;;;;;;5014620;28;20057;-65
2023/08/11 13:57:22;;;;;;;2.75;2.08;;;;;;;;;;5016923;28;20045;-65
2023/08/11 13:59:48;;;;;;;1.85;1.75;;;;;;;;;;5016947;28;20042;-65
2023/08/11 14:02:14;;;;;;;2.10;1.90;;;;;;;;;;5013873;28;20069;-65
2023/08/11 14:04:40;;;;;;;2.08;1.92;;;;;;;;;;5014381;28;20441;-65
2023/08/11 14:07:07;;;;;;;2.88;2.17;;;;;;;;;;5023106;28;20042;-65
2023/08/11 14:09:33;;;;;;;1.55;1.45;;;;;;;;;;5014106;28;20121;-65
2023/08/11 14:11:59;;;;;;;1.83;1.65;;;;;;;;;;5014399;28;20172;-65
2023/08/11 14:14:25;;;;;;;1.85;1.65;;;;;;;;;;5017079;28;20491;-65
2023/08/11 14:16:51;;;;;;;1.77;1.58;;;;;;;;;;5016826;28;20057;-65
2023/08/11 14:19:17;;;;;;;1.33;1.23;;;;;;;;;;5014981;28;20106;-65
2023/08/11 14:21:43;;;;;;;2.28;1.30;;;;;;;;;;5013783;28;20073;-65
2023/08/11 14:24:09;;;;;;;1.80;1.30;;;;;;;;;;5012856;28;20095;-65
2023/08/11 14:26:35;;;;;;;0.80;0.80;;;;;;;;;;5017438;28;20142;-65
2023/08/11 14:29:01;;;;;;;1.27;1.17;;;;;;;;;;5017374;28;20045;-65
2023/08/11 14:31:27;;;;;;;1.88;1.30;;;;;;;;;;5014552;28;20073;-65
2023/08/11 14:33:53;;;;;;;1.15;1.08;;;;;;;;;;5013744;28;20115;-65
2023/08/11 14:36:19;;;;;;;1.27;1.05;;;;;;;;;;5013537;28;20478;-65
2023/08/11 14:38:45;;;;;;;4.28;1.15;;;;;;;;;;5015980;28;20051;-65
2023/08/11 14:41:11;;;;;;;1.25;1.15;;;;;;;;;;5015461;28;20158;-65